sensor_id;sensor_type;location;lat;lon;timestamp;P1;durP1;ratioP1;P2;durP2;ratioP2
69951;SDS011;60406;48.408;13.392;2022-11-15T00:02:32;33.25;;;20.92;;
69951;SDS011;60406;48.408;13.392;2022-11-15T00:07:33;35.60;;;22.70;;
69951;SDS011;60406;48.408;13.392;2022-11-15T00:12:33;71.40;;;23.63;;
69951;SDS011;60406;48.408;13.392;2022-11-15T00:17:34;63.60;;;22.85;;
69951;SDS011;60406;48.408;13.392;2022-11-15T00:22:35;63.80;;;25.45;;
69951;SDS011;60406;48.408;13.392;2022-11-15T00:27:36;235.68;;;29.48;;
69951;SDS011;60406;48.408;13.392;2022-11-15T00:32:37;103.97;;;23.90;;
69951;SDS011;60406;48.408;13.392;2022-11-15T00:37:38;319.27;;;31.08;;
69951;SDS011;60406;48.408;13.392;2022-11-15T00:42:39;180.60;;;28.35;;
69951;SDS011;60406;48.408;13.392;2022-11-15T00:47:40;40.92;;;21.98;;
69951;SDS011;60406;48.408;13.392;2022-11-15T00:52:41;42.53;;;20.38;;
69951;SDS011;60406;48.408;13.392;2022-11-15T00:57:42;30.58;;;20.40;;
69951;SDS011;60406;48.408;13.392;2022-11-15T01:02:43;121.07;;;24.48;;
69951;SDS011;60406;48.408;13.392;2022-11-15T01:07:44;47.00;;;23.38;;
69951;SDS011;60406;48.408;13.392;2022-11-15T01:12:45;42.85;;;26.77;;
69951;SDS011;60406;48.408;13.392;2022-11-15T01:17:46;38.90;;;24.63;;
69951;SDS011;60406;48.408;13.392;2022-11-15T01:22:46;29.45;;;20.02;;
69951;SDS011;60406;48.408;13.392;2022-11-15T01:27:47;39.83;;;23.05;;
69951;SDS011;60406;48.408;13.392;2022-11-15T01:32:48;31.83;;;20.98;;
69951;SDS011;60406;48.408;13.392;2022-11-15T01:37:49;30.17;;;17.80;;
69951;SDS011;60406;48.408;13.392;2022-11-15T01:42:50;29.33;;;19.10;;
69951;SDS011;60406;48.408;13.392;2022-11-15T01:47:51;28.25;;;18.48;;
69951;SDS011;60406;48.408;13.392;2022-11-15T01:52:53;25.85;;;17.92;;
69951;SDS011;60406;48.408;13.392;2022-11-15T01:57:55;37.70;;;20.80;;
69951;SDS011;60406;48.408;13.392;2022-11-15T02:02:59;32.17;;;19.25;;
69951;SDS011;60406;48.408;13.392;2022-11-15T02:08:00;30.60;;;19.52;;
69951;SDS011;60406;48.408;13.392;2022-11-15T02:13:01;38.72;;;17.20;;
69951;SDS011;60406;48.408;13.392;2022-11-15T02:18:24;28.55;;;17.70;;
69951;SDS011;60406;48.408;13.392;2022-11-15T02:23:41;33.65;;;19.25;;
69951;SDS011;60406;48.408;13.392;2022-11-15T02:29:06;69.65;;;20.50;;
69951;SDS011;60406;48.408;13.392;2022-11-15T02:34:12;395.33;;;29.55;;
69951;SDS011;60406;48.408;13.392;2022-11-15T02:39:26;129.48;;;21.20;;
69951;SDS011;60406;48.408;13.392;2022-11-15T02:44:33;133.80;;;20.90;;
69951;SDS011;60406;48.408;13.392;2022-11-15T02:49:38;239.20;;;27.15;;
69951;SDS011;60406;48.408;13.392;2022-11-15T02:54:41;52.55;;;19.55;;
69951;SDS011;60406;48.408;13.392;2022-11-15T03:05:20;46.42;;;18.48;;
69951;SDS011;60406;48.408;13.392;2022-11-15T03:10:36;135.82;;;19.00;;
69951;SDS011;60406;48.408;13.392;2022-11-15T03:21:40;85.03;;;20.48;;
69951;SDS011;60406;48.408;13.392;2022-11-15T03:26:41;54.33;;;17.13;;
69951;SDS011;60406;48.408;13.392;2022-11-15T03:31:45;31.13;;;16.70;;
69951;SDS011;60406;48.408;13.392;2022-11-15T03:36:48;28.13;;;16.77;;
69951;SDS011;60406;48.408;13.392;2022-11-15T03:41:53;112.00;;;22.50;;
69951;SDS011;60406;48.408;13.392;2022-11-15T03:47:07;26.88;;;18.30;;
69951;SDS011;60406;48.408;13.392;2022-11-15T03:52:10;28.70;;;18.75;;
69951;SDS011;60406;48.408;13.392;2022-11-15T03:57:11;24.85;;;16.80;;
69951;SDS011;60406;48.408;13.392;2022-11-15T04:02:12;33.25;;;19.20;;
69951;SDS011;60406;48.408;13.392;2022-11-15T04:07:13;22.63;;;16.90;;
69951;SDS011;60406;48.408;13.392;2022-11-15T04:12:14;23.75;;;16.50;;
69951;SDS011;60406;48.408;13.392;2022-11-15T04:17:15;29.63;;;17.02;;
69951;SDS011;60406;48.408;13.392;2022-11-15T04:22:16;38.33;;;18.27;;
69951;SDS011;60406;48.408;13.392;2022-11-15T04:27:17;27.27;;;17.27;;
69951;SDS011;60406;48.408;13.392;2022-11-15T04:32:18;26.65;;;17.13;;
69951;SDS011;60406;48.408;13.392;2022-11-15T04:37:19;39.15;;;20.60;;
69951;SDS011;60406;48.408;13.392;2022-11-15T04:42:20;32.10;;;20.40;;
69951;SDS011;60406;48.408;13.392;2022-11-15T04:47:20;32.08;;;19.58;;
69951;SDS011;60406;48.408;13.392;2022-11-15T04:52:21;35.17;;;20.92;;
69951;SDS011;60406;48.408;13.392;2022-11-15T04:57:22;36.63;;;19.60;;
69951;SDS011;60406;48.408;13.392;2022-11-15T05:02:23;30.27;;;18.30;;
69951;SDS011;60406;48.408;13.392;2022-11-15T05:07:24;31.33;;;17.60;;
69951;SDS011;60406;48.408;13.392;2022-11-15T05:12:25;34.95;;;19.67;;
69951;SDS011;60406;48.408;13.392;2022-11-15T05:17:26;32.22;;;19.52;;
69951;SDS011;60406;48.408;13.392;2022-11-15T05:22:27;28.40;;;17.98;;
69951;SDS011;60406;48.408;13.392;2022-11-15T05:27:27;43.28;;;21.85;;
69951;SDS011;60406;48.408;13.392;2022-11-15T05:32:28;31.90;;;18.60;;
69951;SDS011;60406;48.408;13.392;2022-11-15T05:37:29;25.05;;;16.45;;
69951;SDS011;60406;48.408;13.392;2022-11-15T05:42:30;25.75;;;16.17;;
69951;SDS011;60406;48.408;13.392;2022-11-15T05:47:31;28.40;;;19.25;;
69951;SDS011;60406;48.408;13.392;2022-11-15T05:52:34;25.00;;;17.30;;
69951;SDS011;60406;48.408;13.392;2022-11-15T05:57:37;29.83;;;16.80;;
69951;SDS011;60406;48.408;13.392;2022-11-15T06:02:38;26.65;;;15.85;;
69951;SDS011;60406;48.408;13.392;2022-11-15T06:07:39;31.05;;;17.95;;
69951;SDS011;60406;48.408;13.392;2022-11-15T06:12:39;42.10;;;21.15;;
69951;SDS011;60406;48.408;13.392;2022-11-15T06:17:40;39.10;;;22.52;;
69951;SDS011;60406;48.408;13.392;2022-11-15T06:22:41;46.42;;;30.65;;
69951;SDS011;60406;48.408;13.392;2022-11-15T06:27:42;48.13;;;30.38;;
69951;SDS011;60406;48.408;13.392;2022-11-15T06:32:43;43.70;;;24.50;;
69951;SDS011;60406;48.408;13.392;2022-11-15T06:37:44;35.10;;;21.77;;
69951;SDS011;60406;48.408;13.392;2022-11-15T06:42:45;32.78;;;19.65;;
69951;SDS011;60406;48.408;13.392;2022-11-15T06:47:46;31.48;;;20.23;;
69951;SDS011;60406;48.408;13.392;2022-11-15T06:52:46;38.10;;;21.98;;
69951;SDS011;60406;48.408;13.392;2022-11-15T06:57:48;35.13;;;20.65;;
69951;SDS011;60406;48.408;13.392;2022-11-15T07:02:52;35.55;;;20.77;;
69951;SDS011;60406;48.408;13.392;2022-11-15T07:07:54;41.60;;;25.50;;
69951;SDS011;60406;48.408;13.392;2022-11-15T07:12:56;38.55;;;25.67;;
69951;SDS011;60406;48.408;13.392;2022-11-15T07:18:00;63.15;;;40.40;;
69951;SDS011;60406;48.408;13.392;2022-11-15T07:23:02;40.40;;;28.23;;
69951;SDS011;60406;48.408;13.392;2022-11-15T07:28:03;40.42;;;27.67;;
69951;SDS011;60406;48.408;13.392;2022-11-15T07:33:04;34.65;;;23.20;;
69951;SDS011;60406;48.408;13.392;2022-11-15T07:38:05;28.80;;;21.77;;
69951;SDS011;60406;48.408;13.392;2022-11-15T07:43:07;31.63;;;21.73;;
69951;SDS011;60406;48.408;13.392;2022-11-15T07:48:09;30.02;;;20.75;;
69951;SDS011;60406;48.408;13.392;2022-11-15T07:53:10;34.22;;;22.40;;
69951;SDS011;60406;48.408;13.392;2022-11-15T07:58:11;40.33;;;25.40;;
69951;SDS011;60406;48.408;13.392;2022-11-15T08:03:13;28.17;;;21.08;;
69951;SDS011;60406;48.408;13.392;2022-11-15T08:08:15;33.00;;;20.77;;
69951;SDS011;60406;48.408;13.392;2022-11-15T08:13:16;28.63;;;19.75;;
69951;SDS011;60406;48.408;13.392;2022-11-15T08:18:17;33.00;;;22.08;;
69951;SDS011;60406;48.408;13.392;2022-11-15T08:23:18;33.83;;;20.73;;
69951;SDS011;60406;48.408;13.392;2022-11-15T08:28:19;34.42;;;24.23;;
69951;SDS011;60406;48.408;13.392;2022-11-15T08:33:20;37.63;;;24.58;;
69951;SDS011;60406;48.408;13.392;2022-11-15T08:38:21;43.78;;;30.88;;
69951;SDS011;60406;48.408;13.392;2022-11-15T08:43:21;48.22;;;30.13;;
69951;SDS011;60406;48.408;13.392;2022-11-15T08:48:22;42.60;;;29.63;;
69951;SDS011;60406;48.408;13.392;2022-11-15T08:53:23;45.83;;;31.73;;
69951;SDS011;60406;48.408;13.392;2022-11-15T08:58:24;50.85;;;32.50;;
69951;SDS011;60406;48.408;13.392;2022-11-15T09:03:25;39.22;;;28.60;;
69951;SDS011;60406;48.408;13.392;2022-11-15T09:08:29;46.03;;;30.42;;
69951;SDS011;60406;48.408;13.392;2022-11-15T09:13:30;48.47;;;32.58;;
69951;SDS011;60406;48.408;13.392;2022-11-15T09:18:31;44.80;;;30.83;;
69951;SDS011;60406;48.408;13.392;2022-11-15T09:23:32;45.83;;;31.95;;
69951;SDS011;60406;48.408;13.392;2022-11-15T09:28:33;48.35;;;33.05;;
69951;SDS011;60406;48.408;13.392;2022-11-15T09:33:34;49.08;;;30.65;;
69951;SDS011;60406;48.408;13.392;2022-11-15T09:38:36;50.20;;;31.98;;
69951;SDS011;60406;48.408;13.392;2022-11-15T09:49:08;47.13;;;31.73;;
69951;SDS011;60406;48.408;13.392;2022-11-15T09:54:30;43.53;;;30.17;;
69951;SDS011;60406;48.408;13.392;2022-11-15T09:59:39;43.58;;;30.40;;
69951;SDS011;60406;48.408;13.392;2022-11-15T10:04:50;45.70;;;33.15;;
69951;SDS011;60406;48.408;13.392;2022-11-15T10:15:30;46.08;;;32.05;;
69951;SDS011;60406;48.408;13.392;2022-11-15T10:20:34;45.65;;;32.58;;
69951;SDS011;60406;48.408;13.392;2022-11-15T10:25:43;45.97;;;33.45;;
69951;SDS011;60406;48.408;13.392;2022-11-15T10:30:45;47.88;;;32.80;;
69951;SDS011;60406;48.408;13.392;2022-11-15T10:35:47;48.72;;;34.22;;
69951;SDS011;60406;48.408;13.392;2022-11-15T10:40:48;46.38;;;32.58;;
69951;SDS011;60406;48.408;13.392;2022-11-15T10:46:18;49.45;;;31.60;;
69951;SDS011;60406;48.408;13.392;2022-11-15T10:51:22;43.53;;;32.50;;
69951;SDS011;60406;48.408;13.392;2022-11-15T10:56:25;43.22;;;30.63;;
69951;SDS011;60406;48.408;13.392;2022-11-15T11:01:27;37.17;;;28.25;;
69951;SDS011;60406;48.408;13.392;2022-11-15T11:06:29;31.08;;;24.98;;
69951;SDS011;60406;48.408;13.392;2022-11-15T11:11:50;30.92;;;26.77;;
69951;SDS011;60406;48.408;13.392;2022-11-15T11:17:01;28.75;;;25.65;;
69951;SDS011;60406;48.408;13.392;2022-11-15T11:38:06;26.73;;;24.00;;
69951;SDS011;60406;48.408;13.392;2022-11-15T11:58:48;25.85;;;23.05;;
69951;SDS011;60406;48.408;13.392;2022-11-15T12:04:27;25.08;;;22.60;;
69951;SDS011;60406;48.408;13.392;2022-11-15T12:09:33;25.88;;;23.27;;
69951;SDS011;60406;48.408;13.392;2022-11-15T12:19:41;25.33;;;22.77;;
69951;SDS011;60406;48.408;13.392;2022-11-15T12:24:59;26.70;;;23.90;;
69951;SDS011;60406;48.408;13.392;2022-11-15T12:30:15;27.73;;;25.02;;
69951;SDS011;60406;48.408;13.392;2022-11-15T12:35:23;26.92;;;24.23;;
69951;SDS011;60406;48.408;13.392;2022-11-15T12:40:26;25.98;;;23.38;;
69951;SDS011;60406;48.408;13.392;2022-11-15T12:50:55;23.20;;;20.90;;
69951;SDS011;60406;48.408;13.392;2022-11-15T13:01:06;23.67;;;21.27;;
69951;SDS011;60406;48.408;13.392;2022-11-15T13:06:08;21.20;;;19.10;;
69951;SDS011;60406;48.408;13.392;2022-11-15T13:11:41;19.95;;;17.95;;
69951;SDS011;60406;48.408;13.392;2022-11-15T13:16:47;20.85;;;18.75;;
69951;SDS011;60406;48.408;13.392;2022-11-15T13:21:48;21.33;;;19.33;;
69951;SDS011;60406;48.408;13.392;2022-11-15T13:26:49;20.63;;;18.70;;
69951;SDS011;60406;48.408;13.392;2022-11-15T13:31:51;20.75;;;18.85;;
69951;SDS011;60406;48.408;13.392;2022-11-15T13:36:52;21.23;;;19.23;;
69951;SDS011;60406;48.408;13.392;2022-11-15T13:41:53;22.50;;;20.30;;
69951;SDS011;60406;48.408;13.392;2022-11-15T13:47:05;22.90;;;20.52;;
69951;SDS011;60406;48.408;13.392;2022-11-15T13:52:16;23.70;;;21.27;;
69951;SDS011;60406;48.408;13.392;2022-11-15T14:02:30;30.73;;;25.58;;
69951;SDS011;60406;48.408;13.392;2022-11-15T14:07:32;29.88;;;24.13;;
69951;SDS011;60406;48.408;13.392;2022-11-15T14:12:34;29.20;;;23.67;;
69951;SDS011;60406;48.408;13.392;2022-11-15T14:17:36;32.10;;;24.30;;
69951;SDS011;60406;48.408;13.392;2022-11-15T14:22:38;32.30;;;24.77;;
69951;SDS011;60406;48.408;13.392;2022-11-15T14:28:11;37.92;;;26.98;;
69951;SDS011;60406;48.408;13.392;2022-11-15T14:38:30;43.25;;;27.40;;
69951;SDS011;60406;48.408;13.392;2022-11-15T14:43:31;42.83;;;27.83;;
69951;SDS011;60406;48.408;13.392;2022-11-15T14:48:32;38.63;;;25.80;;
69951;SDS011;60406;48.408;13.392;2022-11-15T14:53:33;39.97;;;25.98;;
69951;SDS011;60406;48.408;13.392;2022-11-15T14:58:34;36.55;;;24.70;;
69951;SDS011;60406;48.408;13.392;2022-11-15T15:03:35;35.42;;;22.98;;
69951;SDS011;60406;48.408;13.392;2022-11-15T15:08:36;40.20;;;26.05;;
69951;SDS011;60406;48.408;13.392;2022-11-15T15:13:37;41.67;;;27.33;;
69951;SDS011;60406;48.408;13.392;2022-11-15T15:18:38;39.60;;;26.73;;
69951;SDS011;60406;48.408;13.392;2022-11-15T15:23:39;45.40;;;24.33;;
69951;SDS011;60406;48.408;13.392;2022-11-15T15:28:40;40.17;;;26.58;;
69951;SDS011;60406;48.408;13.392;2022-11-15T15:33:41;42.72;;;24.95;;
69951;SDS011;60406;48.408;13.392;2022-11-15T15:38:41;44.47;;;26.00;;
69951;SDS011;60406;48.408;13.392;2022-11-15T15:43:42;45.45;;;27.92;;
69951;SDS011;60406;48.408;13.392;2022-11-15T15:48:44;46.08;;;27.23;;
69951;SDS011;60406;48.408;13.392;2022-11-15T15:53:45;44.50;;;28.88;;
69951;SDS011;60406;48.408;13.392;2022-11-15T15:58:46;40.58;;;25.83;;
69951;SDS011;60406;48.408;13.392;2022-11-15T16:03:46;42.33;;;25.95;;
69951;SDS011;60406;48.408;13.392;2022-11-15T16:08:47;39.72;;;24.35;;
69951;SDS011;60406;48.408;13.392;2022-11-15T16:13:49;40.42;;;24.67;;
69951;SDS011;60406;48.408;13.392;2022-11-15T16:18:50;44.80;;;27.30;;
69951;SDS011;60406;48.408;13.392;2022-11-15T16:23:50;41.45;;;25.00;;
69951;SDS011;60406;48.408;13.392;2022-11-15T16:28:51;39.63;;;25.65;;
69951;SDS011;60406;48.408;13.392;2022-11-15T16:33:52;40.13;;;24.98;;
69951;SDS011;60406;48.408;13.392;2022-11-15T16:38:53;42.67;;;23.63;;
69951;SDS011;60406;48.408;13.392;2022-11-15T16:43:54;41.45;;;25.48;;
69951;SDS011;60406;48.408;13.392;2022-11-15T16:48:55;41.38;;;24.65;;
69951;SDS011;60406;48.408;13.392;2022-11-15T16:53:56;39.65;;;25.00;;
69951;SDS011;60406;48.408;13.392;2022-11-15T16:58:58;45.35;;;26.90;;
69951;SDS011;60406;48.408;13.392;2022-11-15T17:03:59;48.70;;;28.77;;
69951;SDS011;60406;48.408;13.392;2022-11-15T17:09:01;41.92;;;26.55;;
69951;SDS011;60406;48.408;13.392;2022-11-15T17:14:01;44.83;;;27.20;;
69951;SDS011;60406;48.408;13.392;2022-11-15T17:19:03;45.53;;;27.75;;
69951;SDS011;60406;48.408;13.392;2022-11-15T17:24:04;40.13;;;25.73;;
69951;SDS011;60406;48.408;13.392;2022-11-15T17:29:05;45.58;;;28.15;;
69951;SDS011;60406;48.408;13.392;2022-11-15T17:34:06;42.00;;;25.10;;
69951;SDS011;60406;48.408;13.392;2022-11-15T17:39:07;45.15;;;26.73;;
69951;SDS011;60406;48.408;13.392;2022-11-15T17:44:08;44.97;;;25.88;;
69951;SDS011;60406;48.408;13.392;2022-11-15T17:49:08;42.83;;;26.75;;
69951;SDS011;60406;48.408;13.392;2022-11-15T17:54:09;42.58;;;24.25;;
69951;SDS011;60406;48.408;13.392;2022-11-15T17:59:10;42.63;;;24.75;;
69951;SDS011;60406;48.408;13.392;2022-11-15T18:04:11;38.97;;;25.10;;
69951;SDS011;60406;48.408;13.392;2022-11-15T18:09:12;43.22;;;26.08;;
69951;SDS011;60406;48.408;13.392;2022-11-15T18:14:14;46.97;;;28.00;;
69951;SDS011;60406;48.408;13.392;2022-11-15T18:19:14;47.85;;;28.17;;
69951;SDS011;60406;48.408;13.392;2022-11-15T18:24:15;49.22;;;29.38;;
69951;SDS011;60406;48.408;13.392;2022-11-15T18:29:16;48.63;;;28.65;;
69951;SDS011;60406;48.408;13.392;2022-11-15T18:34:17;42.15;;;26.05;;
69951;SDS011;60406;48.408;13.392;2022-11-15T18:39:18;40.65;;;25.17;;
69951;SDS011;60406;48.408;13.392;2022-11-15T18:44:19;40.88;;;24.92;;
69951;SDS011;60406;48.408;13.392;2022-11-15T18:49:20;42.13;;;25.15;;
69951;SDS011;60406;48.408;13.392;2022-11-15T18:54:21;41.78;;;26.45;;
69951;SDS011;60406;48.408;13.392;2022-11-15T18:59:22;43.53;;;26.27;;
69951;SDS011;60406;48.408;13.392;2022-11-15T19:04:23;44.40;;;27.25;;
69951;SDS011;60406;48.408;13.392;2022-11-15T19:09:24;43.45;;;25.50;;
69951;SDS011;60406;48.408;13.392;2022-11-15T19:14:25;41.58;;;25.67;;
69951;SDS011;60406;48.408;13.392;2022-11-15T19:19:26;35.15;;;24.67;;
69951;SDS011;60406;48.408;13.392;2022-11-15T19:24:27;38.70;;;23.98;;
69951;SDS011;60406;48.408;13.392;2022-11-15T19:29:28;36.63;;;23.48;;
69951;SDS011;60406;48.408;13.392;2022-11-15T19:34:29;35.03;;;24.98;;
69951;SDS011;60406;48.408;13.392;2022-11-15T19:39:29;45.60;;;26.10;;
69951;SDS011;60406;48.408;13.392;2022-11-15T19:44:30;38.05;;;25.35;;
69951;SDS011;60406;48.408;13.392;2022-11-15T19:49:31;37.33;;;24.80;;
69951;SDS011;60406;48.408;13.392;2022-11-15T19:54:32;39.20;;;24.65;;
69951;SDS011;60406;48.408;13.392;2022-11-15T19:59:33;40.30;;;25.35;;
69951;SDS011;60406;48.408;13.392;2022-11-15T20:04:34;38.75;;;24.73;;
69951;SDS011;60406;48.408;13.392;2022-11-15T20:09:35;38.60;;;25.55;;
69951;SDS011;60406;48.408;13.392;2022-11-15T20:14:35;42.97;;;26.55;;
69951;SDS011;60406;48.408;13.392;2022-11-15T20:19:36;41.38;;;23.88;;
69951;SDS011;60406;48.408;13.392;2022-11-15T20:24:37;42.78;;;24.88;;
69951;SDS011;60406;48.408;13.392;2022-11-15T20:29:38;42.50;;;25.88;;
69951;SDS011;60406;48.408;13.392;2022-11-15T20:34:39;47.72;;;27.38;;
69951;SDS011;60406;48.408;13.392;2022-11-15T20:39:40;46.88;;;26.95;;
69951;SDS011;60406;48.408;13.392;2022-11-15T20:44:41;42.03;;;25.58;;
69951;SDS011;60406;48.408;13.392;2022-11-15T20:49:42;43.10;;;27.67;;
69951;SDS011;60406;48.408;13.392;2022-11-15T20:54:42;46.47;;;27.02;;
69951;SDS011;60406;48.408;13.392;2022-11-15T20:59:43;44.45;;;24.67;;
69951;SDS011;60406;48.408;13.392;2022-11-15T21:04:44;44.42;;;25.08;;
69951;SDS011;60406;48.408;13.392;2022-11-15T21:09:45;40.88;;;25.23;;
69951;SDS011;60406;48.408;13.392;2022-11-15T21:14:46;42.80;;;25.85;;
69951;SDS011;60406;48.408;13.392;2022-11-15T21:19:47;41.08;;;26.42;;
69951;SDS011;60406;48.408;13.392;2022-11-15T21:24:48;46.67;;;25.63;;
69951;SDS011;60406;48.408;13.392;2022-11-15T21:29:48;45.42;;;27.08;;
69951;SDS011;60406;48.408;13.392;2022-11-15T21:34:49;45.85;;;26.92;;
69951;SDS011;60406;48.408;13.392;2022-11-15T21:39:50;45.03;;;26.92;;
69951;SDS011;60406;48.408;13.392;2022-11-15T21:44:51;46.53;;;27.45;;
69951;SDS011;60406;48.408;13.392;2022-11-15T21:49:52;49.88;;;28.95;;
69951;SDS011;60406;48.408;13.392;2022-11-15T21:54:53;47.00;;;29.02;;
69951;SDS011;60406;48.408;13.392;2022-11-15T21:59:54;51.90;;;26.83;;
69951;SDS011;60406;48.408;13.392;2022-11-15T22:04:54;48.90;;;27.23;;
69951;SDS011;60406;48.408;13.392;2022-11-15T22:09:55;49.47;;;29.50;;
69951;SDS011;60406;48.408;13.392;2022-11-15T22:14:56;46.50;;;27.60;;
69951;SDS011;60406;48.408;13.392;2022-11-15T22:19:57;49.80;;;27.80;;
69951;SDS011;60406;48.408;13.392;2022-11-15T22:24:58;47.67;;;27.73;;
69951;SDS011;60406;48.408;13.392;2022-11-15T22:29:59;47.90;;;27.30;;
69951;SDS011;60406;48.408;13.392;2022-11-15T22:35:00;53.47;;;28.80;;
69951;SDS011;60406;48.408;13.392;2022-11-15T22:40:01;46.65;;;27.92;;
69951;SDS011;60406;48.408;13.392;2022-11-15T22:45:02;41.33;;;24.55;;
69951;SDS011;60406;48.408;13.392;2022-11-15T22:50:03;40.33;;;25.23;;
69951;SDS011;60406;48.408;13.392;2022-11-15T22:55:04;44.00;;;26.48;;
69951;SDS011;60406;48.408;13.392;2022-11-15T23:00:06;45.80;;;26.40;;
69951;SDS011;60406;48.408;13.392;2022-11-15T23:05:09;49.20;;;29.17;;
69951;SDS011;60406;48.408;13.392;2022-11-15T23:10:11;47.20;;;29.35;;
69951;SDS011;60406;48.408;13.392;2022-11-15T23:15:12;45.08;;;25.40;;
69951;SDS011;60406;48.408;13.392;2022-11-15T23:20:13;41.03;;;25.55;;
69951;SDS011;60406;48.408;13.392;2022-11-15T23:25:14;43.53;;;26.50;;
69951;SDS011;60406;48.408;13.392;2022-11-15T23:30:15;46.22;;;27.33;;
69951;SDS011;60406;48.408;13.392;2022-11-15T23:35:16;42.30;;;26.00;;
69951;SDS011;60406;48.408;13.392;2022-11-15T23:40:17;40.50;;;24.83;;
69951;SDS011;60406;48.408;13.392;2022-11-15T23:45:18;40.00;;;23.02;;
69951;SDS011;60406;48.408;13.392;2022-11-15T23:50:19;32.80;;;21.80;;
69951;SDS011;60406;48.408;13.392;2022-11-15T23:55:20;36.50;;;22.40;;
